TENO2: Tenkiller Lake

Data processed at Sun Jul 15 2018 23:31


All information presented herein is the property of the government of the United States of America and may be revised or deleted at any time without prior notice.
Dissemination of this information without the expressed written consent of the Public Affairs Office, Tulsa District U.S. Army Corps of Engineers is strictly prohibited.
These data are gathered electronically and, as presented, have not undergone any form of quality control. These data are not guaranteed to be valid or correct.
Go to home page.
Go to station list.

Upstream stations:

Downstream station:
Previous Day
Next Day
Current Day
    
SHEF ID:       TENO2     Tenkiller Lake
STATION TYPE:  Reservoir
Normal Pool:  Bottom =   594.50, Top =   632.00

               PRECIP PRECIP(A) ELEVATION   STORAGE   TW-ELEV    INFLOW   RELEASE  AIR-TEMP  WIND-DIRWIND-SPEED REL-HUMID SOLAR-RAD   VOLTAGE  BAT-LOAD
                   in        in        ft     ac-ft        ft       cfs       cfs         F       deg       mph         %      W/m2      volt      volt
              Ccp-Rev   Ccp-Rev   Ccp-Rev   Ccp-Rev   Ccp-Rev  Regi-Rev  Regi-Rev   Ccp-Rev   Ccp-Rev   Ccp-Rev   Ccp-Rev   Ccp-Rev   Ccp-Rev   Ccp-Rev
(US/Central)
07/13 00:00      0.00      0.00    630.75    652182    482.74         0       225     73.17    117.60      0.24     97.61      1.00     13.79     13.24
07/13 01:00      0.00      0.00    630.75    652182    482.73         0       225     72.30    105.70      0.38     99.93      1.00     13.79     13.24
07/13 02:00      0.00      0.00    630.73    651930    482.73         0       225     70.86    160.40      0.38    100.05      0.00     13.79     13.24
07/13 03:00      0.00      0.00    630.75    652182    482.73         0       225     70.43    178.90      0.38    100.17      0.00     13.78     13.24
07/13 04:00      ----      ----    630.74    652056    482.73         0       225     69.76    187.20      0.40    100.17      0.00      ----      ----
07/13 05:00      0.00      0.00    630.74    652056    482.73         0       225     69.22    169.80      0.38    100.17      0.00     13.79     13.24
07/13 06:00      0.00      0.00    630.74    652056    482.73         0       225     68.77    100.80      0.31    100.29      0.00     13.79     13.24
07/13 07:00      0.00      0.00    630.75    652182    482.73         0       225     68.99    132.60      0.40    100.29      9.00     13.78     13.18
07/13 08:00      0.00      0.00    630.74    652056    482.73      -901      -901     75.36    138.80      0.40     96.14    113.00     13.78     13.12
07/13 09:00      0.00      0.00    630.74    652056    482.73      -901      -901     82.29     80.00      0.30     74.04    200.00     13.78     13.18
07/13 10:00      0.00      0.00    630.73    651930    482.73      -901      -901     83.84    208.00      0.52     73.68    488.00     13.78     13.18
07/13 11:00      0.00      0.00    630.73    651930    482.73      -901      -901     85.59    118.70      0.61     64.71    673.00     13.78     13.18
07/13 12:00      0.00      0.00    630.75    652182    482.73      -901      -901     87.78    106.10      0.73     52.98    794.00     13.78     13.18
07/13 13:00      0.00      0.00    630.73    651930    482.73      -901      -901     88.56    221.30      2.09     51.09    878.00     13.78     13.18
07/13 14:00      0.00      0.00    630.75    652182    482.73      -901      -901     90.21    200.20      1.04     51.21    862.00     13.78     13.12
07/13 15:00      0.00      0.00    630.72    651805    487.05      -901      -901     91.85    241.40      1.17     44.68    878.00     13.78     13.18
07/13 16:00      0.00      0.00    630.69    651427    487.16      -901      -901     90.97    192.50      1.46     46.64    712.00     13.78     13.12
07/13 17:00      0.00      0.00    630.67    651175    487.05      -901      -901     92.62    221.30      0.67     43.40    608.00     13.78     13.12
07/13 18:00      0.00      0.00    630.65    650923    486.66      -901      -901     93.16    219.10      0.72     43.16    503.00     13.78     13.12
07/13 19:00      0.00      0.00    630.65    650923    482.95      -901      -901     91.42    238.30      0.23     46.58    236.00     13.78     13.18
07/13 20:00      0.00      0.00    630.64    650797    482.78      -901      -901     87.46    182.40      0.09     62.14     35.00     13.78     13.18
07/13 21:00      0.00      0.00    630.65    650923    482.76      -901      -901     80.64    175.40      0.40     85.03      9.00     13.79     13.12
07/13 22:00      0.00      0.00    630.65    650923    482.75      -901      -901     77.79    175.50      0.40     95.78      0.00     13.79     13.24
07/13 23:00      0.00      0.00    630.64    650797    482.74      -901      -901     76.48    175.50      0.40    100.05      1.00     13.79     13.24